Time;durP1;ratioP1;P1;durP2;ratioP2;P2;SDS_P1;SDS_P2;PMS_P1;PMS_P2;Temp;Humidity;BMP_temperature;BMP_pressure;BME280_temperature;BME280_humidity;BME280_pressure;Samples;Min_cycle;Max_cycle;Signal;HPM_P1;HPM_P2
2022/01/31 00:01:51;;;;;;;;;;;23.50;52.30;;;;;;5099442;28;1898;-41
2022/01/31 00:04:19;;;;;;;;;;;23.40;52.20;;;;;;5099660;28;987;-42
2022/01/31 00:06:48;;;;;;;;;;;23.50;52.30;;;;;;5099627;28;1007;-42
2022/01/31 00:09:16;;;;;;;;;;;23.40;52.20;;;;;;5099554;28;1066;-41
2022/01/31 00:11:52;;;;;;;;;;;23.50;52.20;;;;;;5098829;28;1023;-44
2022/01/31 00:14:31;;;;;;;;;;;23.40;52.20;;;;;;5100142;28;1024;-44
2022/01/31 00:16:57;;;;;;;;;;;23.40;52.20;;;;;;5099554;28;952;-43
2022/01/31 00:19:25;;;;;;;;;;;23.50;52.20;;;;;;5099851;28;1012;-44
2022/01/31 00:21:52;;;;;;;;;;;23.50;52.10;;;;;;5099147;28;1979;-41
2022/01/31 00:24:19;;;;;;;;;;;23.50;52.10;;;;;;5099705;28;939;-44
2022/01/31 00:26:46;;;;;;;;;;;23.40;52.10;;;;;;5099212;28;984;-46
2022/01/31 00:29:13;;;;;;;;;;;23.40;52.20;;;;;;5098799;28;1002;-47
2022/01/31 00:31:39;;;;;;;;;;;23.40;52.20;;;;;;5098723;28;1010;-47
2022/01/31 00:34:06;;;;;;;;;;;23.40;52.20;;;;;;5098820;28;1482;-47
2022/01/31 00:36:34;;;;;;;;;;;23.50;52.40;;;;;;5098801;28;1039;-47
2022/01/31 00:39:01;;;;;;;;;;;23.40;52.20;;;;;;5099043;28;1010;-47
2022/01/31 00:41:28;;;;;;;;;;;23.40;52.30;;;;;;5099208;28;1902;-47
2022/01/31 00:44:00;;;;;;;;;;;23.40;52.20;;;;;;5098976;28;951;-46
2022/01/31 00:46:33;;;;;;;;;;;23.40;52.20;;;;;;5099357;28;1023;-46
2022/01/31 00:49:00;;;;;;;;;;;23.40;52.20;;;;;;5098928;28;1015;-49
2022/01/31 00:51:27;;;;;;;;;;;23.40;52.20;;;;;;5099147;28;1154;-38
2022/01/31 00:53:55;;;;;;;;;;;23.40;52.10;;;;;;5099002;28;1014;-38
2022/01/31 00:56:21;;;;;;;;;;;23.40;52.20;;;;;;5099449;28;1002;-36
2022/01/31 00:58:48;;;;;;;;;;;23.40;52.10;;;;;;5099017;28;1014;-36
2022/01/31 01:01:15;;;;;;;;;;;23.40;52.20;;;;;;5098679;28;1906;-36
2022/01/31 01:03:42;;;;;;;;;;;23.40;52.20;;;;;;5098987;28;1012;-37
2022/01/31 01:06:08;;;;;;;;;;;23.30;52.20;;;;;;5098608;28;976;-37
2022/01/31 01:08:35;;;;;;;;;;;23.30;52.30;;;;;;5098765;28;973;-38
2022/01/31 01:11:03;;;;;;;;;;;23.30;52.40;;;;;;5098734;28;1030;-37
2022/01/31 01:13:30;;;;;;;;;;;23.20;52.40;;;;;;5098608;28;1022;-37
2022/01/31 01:15:57;;;;;;;;;;;23.20;52.40;;;;;;5098911;28;944;-48
2022/01/31 01:18:24;;;;;;;;;;;23.20;52.40;;;;;;5098817;28;932;-48
2022/01/31 01:20:50;;;;;;;;;;;23.20;52.50;;;;;;5099007;28;992;-48
2022/01/31 01:23:17;;;;;;;;;;;23.10;52.50;;;;;;5098560;28;1964;-42
2022/01/31 01:25:44;;;;;;;;;;;23.20;52.60;;;;;;5098407;28;1010;-40
2022/01/31 01:28:12;;;;;;;;;;;23.20;52.30;;;;;;5098419;28;953;-41
2022/01/31 01:30:38;;;;;;;;;;;23.20;52.40;;;;;;5098366;28;932;-40
2022/01/31 01:33:10;;;;;;;;;;;23.20;52.30;;;;;;5099059;28;1134;-40
2022/01/31 01:35:38;;;;;;;;;;;23.20;52.50;;;;;;5099771;28;1004;-40
2022/01/31 01:38:07;;;;;;;;;;;23.10;52.60;;;;;;5099399;28;1066;-39
2022/01/31 01:40:34;;;;;;;;;;;23.10;52.50;;;;;;5099318;28;1007;-39
2022/01/31 01:43:01;;;;;;;;;;;23.10;52.70;;;;;;5099328;28;1970;-39
2022/01/31 01:45:29;;;;;;;;;;;23.10;52.70;;;;;;5099210;28;1035;-39
2022/01/31 01:47:56;;;;;;;;;;;23.10;52.70;;;;;;5098940;28;996;-41
2022/01/31 01:50:22;;;;;;;;;;;23.00;52.80;;;;;;5099035;28;1283;-41
2022/01/31 01:52:50;;;;;;;;;;;22.90;52.80;;;;;;5099019;28;963;-39
2022/01/31 01:55:17;;;;;;;;;;;22.90;53.00;;;;;;5099457;28;1020;-40
2022/01/31 01:57:44;;;;;;;;;;;22.90;52.90;;;;;;5099003;28;940;-39
2022/01/31 02:00:16;;;;;;;;;;;22.90;52.90;;;;;;5099305;28;998;-41
2022/01/31 02:02:44;;;;;;;;;;;23.00;52.90;;;;;;5098972;28;1995;-39
2022/01/31 02:05:11;;;;;;;;;;;22.90;52.90;;;;;;5099200;28;1025;-40
2022/01/31 02:07:38;;;;;;;;;;;22.90;53.00;;;;;;5098905;28;931;-40
2022/01/31 02:10:06;;;;;;;;;;;22.90;53.10;;;;;;5099221;28;988;-42
2022/01/31 02:12:38;;;;;;;;;;;22.90;53.00;;;;;;5098551;28;1014;-41
2022/01/31 02:15:05;;;;;;;;;;;22.80;53.10;;;;;;5099309;28;904;-39
2022/01/31 02:17:31;;;;;;;;;;;22.80;53.10;;;;;;5099286;28;970;-43
2022/01/31 02:19:59;;;;;;;;;;;22.80;53.10;;;;;;5098987;28;1073;-39
2022/01/31 02:22:28;;;;;;;;;;;22.80;53.10;;;;;;5098778;28;1905;-40
2022/01/31 02:24:54;;;;;;;;;;;22.80;53.00;;;;;;5098283;28;945;-39
2022/01/31 02:27:26;;;;;;;;;;;22.80;52.90;;;;;;5098769;28;1022;-40
2022/01/31 02:29:53;;;;;;;;;;;22.80;52.90;;;;;;5098935;28;988;-39
2022/01/31 02:32:22;;;;;;;;;;;22.80;53.00;;;;;;5098919;28;1006;-41
2022/01/31 02:34:49;;;;;;;;;;;22.80;52.90;;;;;;5098354;28;1450;-40
2022/01/31 02:37:16;;;;;;;;;;;22.80;52.90;;;;;;5098443;28;1022;-41
2022/01/31 02:39:44;;;;;;;;;;;22.80;52.90;;;;;;5098574;28;1005;-41
2022/01/31 02:42:11;;;;;;;;;;;22.80;52.90;;;;;;5098373;28;1991;-39
2022/01/31 02:44:39;;;;;;;;;;;22.80;53.00;;;;;;5098648;28;977;-39
2022/01/31 02:47:10;;;;;;;;;;;22.80;52.90;;;;;;5098262;28;993;-40
2022/01/31 02:49:46;;;;;;;;;;;22.80;52.90;;;;;;5098544;28;1276;-39
2022/01/31 02:52:14;;;;;;;;;;;22.70;52.80;;;;;;5098391;28;1784;-40
2022/01/31 02:54:40;;;;;;;;;;;22.70;52.90;;;;;;5098661;28;963;-39
2022/01/31 02:57:09;;;;;;;;;;;22.60;52.90;;;;;;5098340;28;1020;-39
2022/01/31 02:59:36;;;;;;;;;;;22.60;53.10;;;;;;5098593;28;1011;-40
2022/01/31 03:02:02;;;;;;;;;;;22.60;53.20;;;;;;5098203;28;1906;-39
2022/01/31 03:07:34;;;;;;;;;;;22.60;53.00;;;;;;5097877;28;676;-40
2022/01/31 03:10:00;;;;;;;;;;;22.50;52.80;;;;;;5098342;28;1854;-39
2022/01/31 03:12:29;;;;;;;;;;;22.50;53.20;;;;;;5098168;28;1000;-42
2022/01/31 03:14:55;;;;;;;;;;;22.50;52.90;;;;;;5098573;28;944;-40
2022/01/31 03:17:22;;;;;;;;;;;22.60;52.70;;;;;;5098042;28;1012;-39
2022/01/31 03:19:53;;;;;;;;;;;22.50;52.50;;;;;;5098310;28;997;-39
2022/01/31 03:22:20;;;;;;;;;;;22.50;52.80;;;;;;5097957;28;1890;-39
2022/01/31 03:24:48;;;;;;;;;;;22.50;52.80;;;;;;5098512;28;969;-39
2022/01/31 03:27:15;;;;;;;;;;;22.50;52.80;;;;;;5098389;28;995;-42
2022/01/31 03:29:43;;;;;;;;;;;22.40;52.80;;;;;;5098064;28;1028;-39
2022/01/31 03:32:10;;;;;;;;;;;22.40;52.60;;;;;;5097707;28;964;-41
2022/01/31 03:34:36;;;;;;;;;;;22.40;52.60;;;;;;5097479;28;1009;-40
2022/01/31 03:37:03;;;;;;;;;;;22.40;52.50;;;;;;5101413;28;1776;-39
2022/01/31 03:39:30;;;;;;;;;;;22.50;52.80;;;;;;5101740;28;1106;-41
2022/01/31 03:41:57;;;;;;;;;;;22.40;52.50;;;;;;5101341;28;1002;-40
2022/01/31 03:44:23;;;;;;;;;;;22.40;52.50;;;;;;5101116;28;1906;-39
2022/01/31 03:46:51;;;;;;;;;;;22.50;52.40;;;;;;5101421;28;937;-40
2022/01/31 03:49:18;;;;;;;;;;;22.40;52.50;;;;;;5101549;28;944;-39
2022/01/31 03:51:45;;;;;;;;;;;22.50;52.70;;;;;;5102064;28;936;-40
2022/01/31 03:54:11;;;;;;;;;;;22.40;52.60;;;;;;5101422;28;1077;-39
2022/01/31 03:56:39;;;;;;;;;;;22.40;52.70;;;;;;5101104;28;1032;-38
2022/01/31 03:59:05;;;;;;;;;;;22.40;52.50;;;;;;5101657;28;990;-39
2022/01/31 04:01:32;;;;;;;;;;;22.40;52.50;;;;;;5101345;28;924;-39
2022/01/31 04:04:00;;;;;;;;;;;22.40;52.50;;;;;;5100999;28;1976;-39
2022/01/31 04:06:27;;;;;;;;;;;22.40;52.80;;;;;;5100642;28;947;-41
2022/01/31 04:08:54;;;;;;;;;;;22.40;52.30;;;;;;5100825;28;1003;-40
2022/01/31 04:11:21;;;;;;;;;;;22.30;52.50;;;;;;5101123;28;1011;-39
2022/01/31 04:13:48;;;;;;;;;;;22.40;52.50;;;;;;5100893;28;1076;-39
2022/01/31 04:16:14;;;;;;;;;;;22.30;52.60;;;;;;5100967;28;948;-39
2022/01/31 04:18:41;;;;;;;;;;;22.30;52.60;;;;;;5100538;28;996;-40
2022/01/31 04:21:09;;;;;;;;;;;22.30;52.40;;;;;;5100670;28;937;-39
2022/01/31 04:23:35;;;;;;;;;;;22.30;52.50;;;;;;5100662;28;1903;-39
2022/01/31 04:26:10;;;;;;;;;;;22.30;52.70;;;;;;5100685;28;991;-39
2022/01/31 04:28:43;;;;;;;;;;;22.20;52.60;;;;;;5100579;28;940;-41
2022/01/31 04:31:23;;;;;;;;;;;22.20;52.60;;;;;;5101041;28;974;-40
2022/01/31 04:33:50;;;;;;;;;;;22.30;52.50;;;;;;5101216;28;1022;-40
2022/01/31 04:36:19;;;;;;;;;;;22.30;52.20;;;;;;5100485;28;943;-39
2022/01/31 04:38:47;;;;;;;;;;;22.30;52.60;;;;;;5100477;28;1136;-40
2022/01/31 04:41:14;;;;;;;;;;;22.30;52.10;;;;;;5100856;28;987;-40
2022/01/31 04:43:42;;;;;;;;;;;22.30;52.60;;;;;;5100193;28;1893;-39
2022/01/31 04:46:10;;;;;;;;;;;22.40;52.60;;;;;;5100113;28;1011;-39
2022/01/31 04:48:37;;;;;;;;;;;22.40;52.50;;;;;;5098903;28;984;-40
2022/01/31 04:51:03;;;;;;;;;;;22.40;52.60;;;;;;5100050;28;1274;-40
2022/01/31 04:53:31;;;;;;;;;;;22.40;52.70;;;;;;5099819;28;1005;-40
2022/01/31 04:55:58;;;;;;;;;;;22.50;52.60;;;;;;5099344;28;972;-39
2022/01/31 04:58:25;;;;;;;;;;;22.50;52.50;;;;;;5099564;28;944;-39
2022/01/31 05:00:52;;;;;;;;;;;22.60;52.50;;;;;;5099712;28;2063;-40
2022/01/31 05:03:20;;;;;;;;;;;22.70;52.40;;;;;;5099190;28;1901;-39
2022/01/31 05:05:47;;;;;;;;;;;22.70;52.30;;;;;;5099541;28;987;-39
2022/01/31 05:08:14;;;;;;;;;;;22.70;52.10;;;;;;5099381;28;904;-41
2022/01/31 05:10:45;;;;;;;;;;;22.80;52.20;;;;;;5099116;28;932;-40
2022/01/31 05:13:12;;;;;;;;;;;22.90;52.10;;;;;;5099468;28;967;-41
2022/01/31 05:15:39;;;;;;;;;;;22.90;52.00;;;;;;5099320;28;996;-43
2022/01/31 05:18:06;;;;;;;;;;;22.90;51.90;;;;;;5099176;28;1820;-39
2022/01/31 05:20:33;;;;;;;;;;;22.90;52.00;;;;;;5099465;28;988;-39
2022/01/31 05:23:00;;;;;;;;;;;23.00;51.70;;;;;;5098231;28;1918;-40
2022/01/31 05:25:26;;;;;;;;;;;23.00;51.50;;;;;;5099214;28;971;-40
2022/01/31 05:27:54;;;;;;;;;;;23.00;51.50;;;;;;5099048;28;940;-39
2022/01/31 05:30:23;;;;;;;;;;;23.00;51.90;;;;;;5099129;28;996;-41
2022/01/31 05:32:49;;;;;;;;;;;23.00;51.70;;;;;;5098945;28;1015;-40
2022/01/31 05:35:16;;;;;;;;;;;23.00;51.70;;;;;;5097645;28;995;-39
2022/01/31 05:37:43;;;;;;;;;;;23.00;51.70;;;;;;5098634;28;988;-41
2022/01/31 05:40:10;;;;;;;;;;;23.00;51.80;;;;;;5099128;28;1017;-40
2022/01/31 05:42:37;;;;;;;;;;;23.00;51.90;;;;;;5098862;28;1078;-39
2022/01/31 05:45:06;;;;;;;;;;;23.00;51.70;;;;;;5098697;28;1959;-40
2022/01/31 05:47:34;;;;;;;;;;;23.00;51.70;;;;;;5099417;28;996;-40
2022/01/31 05:50:01;;;;;;;;;;;23.00;51.50;;;;;;5099172;28;1020;-40
2022/01/31 05:52:28;;;;;;;;;;;22.90;51.70;;;;;;5098604;28;901;-41
2022/01/31 05:54:54;;;;;;;;;;;22.90;51.70;;;;;;5098594;28;996;-39
2022/01/31 05:57:21;;;;;;;;;;;22.90;51.80;;;;;;5098266;28;984;-39
2022/01/31 05:59:48;;;;;;;;;;;22.90;51.80;;;;;;5097076;28;980;-41
2022/01/31 06:02:16;;;;;;;;;;;22.90;51.70;;;;;;5097797;28;1043;-41
2022/01/31 06:04:43;;;;;;;;;;;22.90;51.80;;;;;;5097743;28;1910;-40
2022/01/31 06:07:09;;;;;;;;;;;22.90;51.80;;;;;;5097525;28;965;-42
2022/01/31 06:09:37;;;;;;;;;;;22.90;51.80;;;;;;5097980;28;1032;-39
2022/01/31 06:12:04;;;;;;;;;;;22.80;51.90;;;;;;5098278;28;1019;-40
2022/01/31 06:14:31;;;;;;;;;;;22.80;52.10;;;;;;5097804;28;940;-40
2022/01/31 06:16:58;;;;;;;;;;;22.80;52.00;;;;;;5097303;28;1012;-39
2022/01/31 06:19:27;;;;;;;;;;;22.80;52.00;;;;;;5097069;28;1160;-40
2022/01/31 06:21:53;;;;;;;;;;;22.70;51.90;;;;;;5095682;28;976;-40
2022/01/31 06:24:20;;;;;;;;;;;22.70;52.10;;;;;;5095786;28;1970;-39
2022/01/31 06:26:47;;;;;;;;;;;22.60;52.00;;;;;;5095336;28;1291;-39
2022/01/31 06:29:14;;;;;;;;;;;22.70;52.10;;;;;;5095765;28;983;-40
2022/01/31 06:31:41;;;;;;;;;;;22.60;52.10;;;;;;5094787;28;944;-42
2022/01/31 06:34:08;;;;;;;;;;;22.60;52.10;;;;;;5096008;28;948;-44
2022/01/31 06:36:36;;;;;;;;;;;22.60;52.30;;;;;;5095980;28;1115;-39
2022/01/31 06:39:03;;;;;;;;;;;22.70;52.30;;;;;;5095834;28;973;-38
2022/01/31 06:41:30;;;;;;;;;;;22.70;52.10;;;;;;5095040;28;931;-39
2022/01/31 06:43:57;;;;;;;;;;;22.70;52.10;;;;;;5096219;28;1901;-39
2022/01/31 06:46:23;;;;;;;;;;;22.70;52.30;;;;;;5096568;28;928;-38
2022/01/31 06:48:50;;;;;;;;;;;22.70;52.10;;;;;;5094956;28;967;-38
2022/01/31 06:51:17;;;;;;;;;;;22.60;52.00;;;;;;5095410;28;1026;-38
2022/01/31 06:53:48;;;;;;;;;;;22.70;51.90;;;;;;5096118;28;904;-40
2022/01/31 06:56:15;;;;;;;;;;;22.70;52.00;;;;;;5096371;28;968;-39
2022/01/31 06:58:42;;;;;;;;;;;22.70;52.00;;;;;;5094319;28;1979;-41
2022/01/31 07:01:09;;;;;;;;;;;22.70;52.10;;;;;;5094167;28;995;-47
2022/01/31 07:03:37;;;;;;;;;;;22.70;52.20;;;;;;5093214;28;1910;-39
2022/01/31 07:06:04;;;;;;;;;;;22.70;52.40;;;;;;5093600;28;1054;-38
2022/01/31 07:08:31;;;;;;;;;;;22.80;52.40;;;;;;5093470;28;1014;-39
2022/01/31 07:10:59;;;;;;;;;;;22.80;52.50;;;;;;5097794;28;968;-39
2022/01/31 07:13:36;;;;;;;;;;;22.90;52.30;;;;;;5100017;28;992;-43
2022/01/31 07:16:03;;;;;;;;;;;22.90;52.40;;;;;;5099894;28;960;-39
2022/01/31 07:18:31;;;;;;;;;;;22.90;52.30;;;;;;5100215;28;1014;-40
2022/01/31 07:20:59;;;;;;;;;;;22.90;52.00;;;;;;5099806;28;904;-39
2022/01/31 07:23:27;;;;;;;;;;;22.90;52.30;;;;;;5100066;28;1971;-40
2022/01/31 07:25:54;;;;;;;;;;;22.90;52.30;;;;;;5099842;28;979;-39
2022/01/31 07:28:22;;;;;;;;;;;22.80;52.40;;;;;;5099946;28;998;-38
2022/01/31 07:30:50;;;;;;;;;;;22.80;52.40;;;;;;5099389;28;1358;-39
2022/01/31 07:33:17;;;;;;;;;;;22.80;52.10;;;;;;5098741;28;1027;-38
2022/01/31 07:35:46;;;;;;;;;;;22.80;52.20;;;;;;5099151;28;999;-38
2022/01/31 07:38:13;;;;;;;;;;;22.70;52.60;;;;;;5099323;28;932;-39
2022/01/31 07:40:40;;;;;;;;;;;22.80;52.30;;;;;;5100000;28;936;-39
2022/01/31 07:43:07;;;;;;;;;;;22.80;52.40;;;;;;5099859;28;996;-39
2022/01/31 07:45:35;;;;;;;;;;;22.80;52.20;;;;;;5099581;28;1989;-40
2022/01/31 07:48:02;;;;;;;;;;;22.80;52.10;;;;;;5100105;28;979;-39
2022/01/31 07:50:31;;;;;;;;;;;22.90;52.20;;;;;;5099683;28;1121;-38
2022/01/31 07:52:58;;;;;;;;;;;22.80;52.20;;;;;;5099709;28;1002;-38
2022/01/31 07:55:24;;;;;;;;;;;22.90;52.30;;;;;;5098800;28;998;-44
2022/01/31 07:57:51;;;;;;;;;;;22.80;52.20;;;;;;5099393;28;976;-43
2022/01/31 08:00:18;;;;;;;;;;;22.90;52.20;;;;;;5098466;28;1098;-46
2022/01/31 08:02:46;;;;;;;;;;;22.80;52.10;;;;;;5099329;28;945;-47
2022/01/31 08:05:13;;;;;;;;;;;22.70;52.20;;;;;;5099345;28;1909;-46
2022/01/31 08:07:40;;;;;;;;;;;22.80;52.10;;;;;;5098672;28;1027;-44
2022/01/31 08:10:07;;;;;;;;;;;22.90;52.10;;;;;;5097010;28;1003;-42
2022/01/31 08:12:36;;;;;;;;;;;22.80;52.00;;;;;;5095573;28;1050;-44
2022/01/31 08:15:06;;;;;;;;;;;22.80;52.10;;;;;;5097368;28;1006;-42
2022/01/31 08:17:33;;;;;;;;;;;22.90;52.10;;;;;;5098605;28;967;-43
2022/01/31 08:20:02;;;;;;;;;;;22.80;52.40;;;;;;5098694;28;1012;-43
2022/01/31 08:22:28;;;;;;;;;;;22.80;52.90;;;;;;5098213;28;923;-46
2022/01/31 08:24:55;;;;;;;;;;;22.70;52.90;;;;;;5098122;28;1921;-47
2022/01/31 08:27:22;;;;;;;;;;;22.70;52.90;;;;;;5096864;28;999;-44
2022/01/31 08:29:55;;;;;;;;;;;22.70;53.20;;;;;;5097348;28;992;-42
2022/01/31 08:32:33;;;;;;;;;;;22.80;52.80;;;;;;5097069;28;1051;-45
2022/01/31 08:37:45;;;;;;;;;;;22.60;52.70;;;;;;5097132;28;688;-45
2022/01/31 08:40:12;;;;;;;;;;;22.70;52.80;;;;;;5097330;28;1119;-46
2022/01/31 08:42:39;;;;;;;;;;;22.60;52.40;;;;;;5097218;28;964;-47
2022/01/31 08:45:06;;;;;;;;;;;22.60;52.40;;;;;;5096971;28;1901;-47
2022/01/31 08:47:34;;;;;;;;;;;22.60;52.30;;;;;;5095860;28;964;-47
2022/01/31 08:50:01;;;;;;;;;;;22.50;52.40;;;;;;5096888;28;1088;-47
2022/01/31 08:52:27;;;;;;;;;;;22.50;52.70;;;;;;5096740;28;947;-46
2022/01/31 08:54:56;;;;;;;;;;;22.50;52.60;;;;;;5096407;28;1062;-48
2022/01/31 08:57:22;;;;;;;;;;;22.40;52.70;;;;;;5096295;28;920;-48
2022/01/31 08:59:51;;;;;;;;;;;22.50;52.50;;;;;;5095093;28;980;-48
2022/01/31 09:02:24;;;;;;;;;;;22.50;52.50;;;;;;5097230;28;940;-46
2022/01/31 09:04:52;;;;;;;;;;;22.50;52.60;;;;;;5097380;28;1972;-40
2022/01/31 09:07:20;;;;;;;;;;;22.40;52.60;;;;;;5097594;28;932;-39
2022/01/31 09:09:50;;;;;;;;;;;22.40;52.80;;;;;;5097723;28;996;-39
2022/01/31 09:12:18;;;;;;;;;;;22.40;52.70;;;;;;5097175;28;864;-39
2022/01/31 09:14:45;;;;;;;;;;;22.40;52.60;;;;;;5095977;28;924;-42
2022/01/31 09:17:12;;;;;;;;;;;22.50;52.40;;;;;;5097783;28;1015;-40
2022/01/31 09:19:38;;;;;;;;;;;22.50;52.40;;;;;;5097287;28;1016;-39
2022/01/31 09:22:07;;;;;;;;;;;22.40;52.50;;;;;;5097790;28;1023;-39
2022/01/31 09:24:37;;;;;;;;;;;22.40;52.60;;;;;;5097737;28;1977;-46
2022/01/31 09:27:04;;;;;;;;;;;22.40;52.60;;;;;;5097373;28;1000;-46
2022/01/31 09:29:32;;;;;;;;;;;22.40;52.60;;;;;;5097092;28;989;-47
2022/01/31 09:32:02;;;;;;;;;;;22.40;52.40;;;;;;5096355;28;823;-47
2022/01/31 09:34:30;;;;;;;;;;;22.40;52.30;;;;;;5096894;28;1002;-47
2022/01/31 09:36:57;;;;;;;;;;;22.30;52.30;;;;;;5095760;28;1063;-47
2022/01/31 09:39:24;;;;;;;;;;;22.40;52.10;;;;;;5095924;28;956;-47
2022/01/31 09:41:54;;;;;;;;;;;22.40;52.10;;;;;;5097338;28;1037;-39
2022/01/31 09:44:26;;;;;;;;;;;22.30;52.10;;;;;;5097203;28;1898;-41
2022/01/31 09:47:07;;;;;;;;;;;22.30;52.00;;;;;;5096250;28;1049;-38
2022/01/31 09:49:34;;;;;;;;;;;22.30;52.00;;;;;;5096876;28;1007;-40
2022/01/31 09:52:01;;;;;;;;;;;22.30;52.10;;;;;;5097624;28;1015;-39
2022/01/31 09:54:28;;;;;;;;;;;22.30;52.00;;;;;;5096790;28;932;-39
2022/01/31 09:56:55;;;;;;;;;;;22.30;52.00;;;;;;5096045;28;1026;-39
2022/01/31 09:59:21;;;;;;;;;;;22.30;51.90;;;;;;5095779;28;940;-39
2022/01/31 10:01:52;;;;;;;;;;;22.30;51.80;;;;;;5096284;28;941;-39
2022/01/31 10:04:20;;;;;;;;;;;22.30;51.80;;;;;;5097250;28;1974;-39
2022/01/31 10:06:48;;;;;;;;;;;22.30;51.80;;;;;;5095941;28;1026;-39
2022/01/31 10:09:17;;;;;;;;;;;22.20;51.80;;;;;;5096527;28;927;-39
2022/01/31 10:11:49;;;;;;;;;;;22.20;51.70;;;;;;5097358;28;1138;-41
2022/01/31 10:17:02;;;;;;;;;;;22.20;51.70;;;;;;5094347;28;688;-38
2022/01/31 10:19:37;;;;;;;;;;;22.20;51.70;;;;;;5095245;28;1002;-40
2022/01/31 10:22:04;;;;;;;;;;;22.20;51.90;;;;;;5094713;28;1006;-40
2022/01/31 10:24:32;;;;;;;;;;;22.20;51.80;;;;;;5096237;28;1985;-40
2022/01/31 10:27:06;;;;;;;;;;;22.20;51.80;;;;;;5096335;28;1038;-41
2022/01/31 10:29:33;;;;;;;;;;;22.10;51.80;;;;;;5096034;28;984;-39
2022/01/31 10:32:02;;;;;;;;;;;22.20;51.70;;;;;;5096521;28;995;-38
2022/01/31 10:34:31;;;;;;;;;;;22.20;51.70;;;;;;5096735;28;999;-42
2022/01/31 10:37:02;;;;;;;;;;;22.10;51.70;;;;;;5097189;28;939;-43
2022/01/31 10:51:06;;;;;;;;;;;22.10;51.70;;;;;;5100545;28;1088;-44
2022/01/31 10:53:38;;;;;;;;;;;22.10;51.70;;;;;;5100269;28;1004;-44
2022/01/31 10:56:05;;;;;;;;;;;22.10;51.60;;;;;;5099632;28;997;-46
2022/01/31 10:58:32;;;;;;;;;;;22.10;51.60;;;;;;5099211;28;940;-47
2022/01/31 11:01:11;;;;;;;;;;;22.10;51.50;;;;;;5100241;28;1023;-41
2022/01/31 11:03:38;;;;;;;;;;;22.10;51.50;;;;;;5100437;28;953;-38
2022/01/31 11:06:08;;;;;;;;;;;22.10;51.60;;;;;;5100414;28;1956;-39
2022/01/31 11:08:34;;;;;;;;;;;22.00;51.50;;;;;;5100274;28;1006;-39
2022/01/31 11:11:01;;;;;;;;;;;22.00;51.40;;;;;;5100039;28;931;-39
2022/01/31 11:13:28;;;;;;;;;;;22.00;51.40;;;;;;5100022;28;1007;-40
2022/01/31 11:15:55;;;;;;;;;;;22.00;51.50;;;;;;5100176;28;972;-47
2022/01/31 11:18:22;;;;;;;;;;;22.00;51.40;;;;;;5099257;28;1006;-39
2022/01/31 11:20:52;;;;;;;;;;;22.00;51.30;;;;;;5097903;28;992;-40
2022/01/31 11:23:22;;;;;;;;;;;22.00;51.50;;;;;;5098979;28;1034;-42
2022/01/31 11:25:51;;;;;;;;;;;22.00;51.40;;;;;;5100302;28;1909;-41
2022/01/31 11:28:18;;;;;;;;;;;22.00;51.50;;;;;;5099802;28;951;-41
2022/01/31 11:30:45;;;;;;;;;;;22.00;51.30;;;;;;5100388;28;1834;-40
2022/01/31 11:33:12;;;;;;;;;;;22.00;51.10;;;;;;5099859;28;1008;-40
2022/01/31 11:35:39;;;;;;;;;;;21.90;51.30;;;;;;5099533;28;1040;-40
2022/01/31 11:38:06;;;;;;;;;;;21.90;51.40;;;;;;5100109;28;1181;-40
2022/01/31 11:40:34;;;;;;;;;;;21.90;51.20;;;;;;5100030;28;1012;-40
2022/01/31 11:43:02;;;;;;;;;;;21.90;51.20;;;;;;5097985;28;1004;-39
2022/01/31 11:45:29;;;;;;;;;;;22.00;51.30;;;;;;5099140;28;1917;-40
2022/01/31 11:47:57;;;;;;;;;;;21.90;51.30;;;;;;5098360;28;1006;-40
2022/01/31 11:50:24;;;;;;;;;;;21.90;51.20;;;;;;5099315;28;1181;-39
2022/01/31 11:52:54;;;;;;;;;;;22.00;51.20;;;;;;5098604;28;969;-40
2022/01/31 11:55:22;;;;;;;;;;;21.90;51.20;;;;;;5098159;28;975;-40
2022/01/31 11:57:51;;;;;;;;;;;21.90;51.20;;;;;;5097890;28;995;-39
2022/01/31 12:00:19;;;;;;;;;;;21.90;51.30;;;;;;5098222;28;1011;-39
2022/01/31 12:02:47;;;;;;;;;;;21.90;51.40;;;;;;5098348;28;999;-39
2022/01/31 12:05:16;;;;;;;;;;;21.90;52.40;;;;;;5098300;28;1970;-41
2022/01/31 12:07:44;;;;;;;;;;;21.90;51.40;;;;;;5098220;28;967;-38
2022/01/31 12:10:19;;;;;;;;;;;21.90;51.30;;;;;;5098039;28;1057;-39
2022/01/31 12:12:51;;;;;;;;;;;21.80;51.30;;;;;;5098650;28;908;-40
2022/01/31 12:15:57;;;;;;;;;;;21.80;51.30;;;;;;5098231;28;917;-39
2022/01/31 12:19:04;;;;;;;;;;;21.80;51.30;;;;;;5098500;28;1092;-39
2022/01/31 12:24:23;;;;;;;;;;;21.70;51.30;;;;;;5098354;28;1005;-41
2022/01/31 12:26:52;;;;;;;;;;;21.80;51.30;;;;;;5098467;28;1902;-39
2022/01/31 12:29:20;;;;;;;;;;;21.80;51.40;;;;;;5098762;28;1028;-39
2022/01/31 12:31:49;;;;;;;;;;;21.80;51.30;;;;;;5098095;28;972;-40
2022/01/31 12:34:33;;;;;;;;;;;21.80;51.20;;;;;;5098157;28;1018;-38
2022/01/31 12:37:00;;;;;;;;;;;21.80;51.30;;;;;;5098287;28;1011;-38
2022/01/31 12:39:50;;;;;;;;;;;21.80;51.20;;;;;;5097188;28;931;-39
2022/01/31 12:42:46;;;;;;;;;;;21.80;51.20;;;;;;5096699;28;1079;-39
2022/01/31 12:45:14;;;;;;;;;;;21.70;51.30;;;;;;5096746;28;1905;-40
2022/01/31 12:47:55;;;;;;;;;;;21.80;51.30;;;;;;5097300;28;923;-42
2022/01/31 12:50:25;;;;;;;;;;;21.70;51.20;;;;;;5097078;28;1206;-40
2022/01/31 12:52:52;;;;;;;;;;;21.80;51.20;;;;;;5097292;28;978;-41
2022/01/31 12:55:19;;;;;;;;;;;21.70;51.30;;;;;;5097783;28;1021;-41
2022/01/31 12:57:47;;;;;;;;;;;21.80;51.10;;;;;;5096936;28;1027;-38
2022/01/31 13:00:14;;;;;;;;;;;21.80;51.10;;;;;;5097327;28;1013;-43
2022/01/31 13:02:47;;;;;;;;;;;21.70;51.20;;;;;;5097508;28;1027;-40
2022/01/31 13:05:14;;;;;;;;;;;21.70;51.20;;;;;;5096913;28;1983;-41
2022/01/31 13:07:42;;;;;;;;;;;21.80;51.20;;;;;;5095427;28;947;-40
2022/01/31 13:10:10;;;;;;;;;;;21.70;51.10;;;;;;5096840;28;1201;-39
2022/01/31 13:12:37;;;;;;;;;;;21.70;51.10;;;;;;5096878;28;988;-38
2022/01/31 13:15:04;;;;;;;;;;;21.70;51.20;;;;;;5094629;28;994;-39
2022/01/31 13:17:31;;;;;;;;;;;21.80;51.20;;;;;;5095707;28;1021;-39
2022/01/31 13:19:59;;;;;;;;;;;21.80;51.10;;;;;;5095618;28;975;-38
2022/01/31 13:22:30;;;;;;;;;;;21.70;51.20;;;;;;5095282;28;1020;-42
2022/01/31 13:24:59;;;;;;;;;;;21.70;51.10;;;;;;5096039;28;1014;-42
2022/01/31 13:27:33;;;;;;;;;;;21.70;51.20;;;;;;5094018;28;1974;-39
2022/01/31 13:30:01;;;;;;;;;;;21.70;51.20;;;;;;5096760;28;1126;-39
2022/01/31 13:32:30;;;;;;;;;;;21.70;51.10;;;;;;5095299;28;951;-40
2022/01/31 13:34:58;;;;;;;;;;;21.70;51.20;;;;;;5096335;28;1029;-39
2022/01/31 13:37:32;;;;;;;;;;;21.70;51.20;;;;;;5097149;28;1030;-41
2022/01/31 13:40:02;;;;;;;;;;;21.70;51.10;;;;;;5097108;28;977;-41
2022/01/31 13:42:34;;;;;;;;;;;21.70;51.30;;;;;;5097585;28;980;-39
2022/01/31 13:45:02;;;;;;;;;;;21.60;51.20;;;;;;5097199;28;1059;-38
2022/01/31 13:47:33;;;;;;;;;;;21.60;51.30;;;;;;5096201;28;1987;-43
2022/01/31 13:50:03;;;;;;;;;;;21.60;51.30;;;;;;5097685;28;991;-39
2022/01/31 13:52:33;;;;;;;;;;;21.60;51.30;;;;;;5096884;28;978;-39
2022/01/31 13:55:03;;;;;;;;;;;21.60;51.20;;;;;;5097476;28;1004;-39
2022/01/31 13:57:30;;;;;;;;;;;21.60;51.20;;;;;;5097307;28;940;-39
2022/01/31 13:59:57;;;;;;;;;;;21.60;51.30;;;;;;5096859;28;1016;-38
2022/01/31 14:02:24;;;;;;;;;;;21.60;51.30;;;;;;5095358;28;1034;-41
2022/01/31 14:04:51;;;;;;;;;;;21.60;51.20;;;;;;5096615;28;1023;-39
2022/01/31 14:07:24;;;;;;;;;;;21.60;51.20;;;;;;5095696;28;1902;-40
2022/01/31 14:09:53;;;;;;;;;;;21.60;51.10;;;;;;5096769;28;1058;-38
2022/01/31 14:12:24;;;;;;;;;;;21.60;51.20;;;;;;5096842;28;1030;-43
2022/01/31 14:14:51;;;;;;;;;;;21.60;51.30;;;;;;5096250;28;1011;-42
2022/01/31 14:17:18;;;;;;;;;;;21.60;51.10;;;;;;5095558;28;943;-41
2022/01/31 14:19:45;;;;;;;;;;;21.60;51.10;;;;;;5095097;28;1000;-38
2022/01/31 14:22:12;;;;;;;;;;;21.60;51.20;;;;;;5095884;28;980;-40
2022/01/31 14:24:38;;;;;;;;;;;21.60;51.30;;;;;;5096549;28;923;-39
2022/01/31 14:27:05;;;;;;;;;;;21.50;51.20;;;;;;5095836;28;1979;-39
2022/01/31 14:29:35;;;;;;;;;;;21.50;51.30;;;;;;5096177;28;1773;-40
2022/01/31 14:32:02;;;;;;;;;;;21.50;51.40;;;;;;5096481;28;1023;-40
2022/01/31 14:34:29;;;;;;;;;;;21.50;51.30;;;;;;5094084;28;1066;-39
2022/01/31 14:37:00;;;;;;;;;;;21.50;51.30;;;;;;5096613;28;943;-40
2022/01/31 14:39:35;;;;;;;;;;;21.60;51.30;;;;;;5096455;28;932;-39
2022/01/31 14:47:53;;;;;;;;;;;21.50;51.30;;;;;;5089586;28;1043;-34
2022/01/31 14:50:21;;;;;;;;;;;21.50;51.30;;;;;;5090191;28;988;-34
2022/01/31 14:52:48;;;;;;;;;;;21.40;51.30;;;;;;5089675;28;997;-39
2022/01/31 14:55:16;;;;;;;;;;;21.40;51.40;;;;;;5090410;27;1751;-34
2022/01/31 14:57:43;;;;;;;;;;;21.40;51.40;;;;;;5089969;28;992;-34
2022/01/31 15:00:12;;;;;;;;;;;21.50;51.30;;;;;;5089349;28;1136;-34
2022/01/31 15:02:40;;;;;;;;;;;21.40;51.20;;;;;;5090330;28;947;-34
2022/01/31 15:05:08;;;;;;;;;;;21.40;51.20;;;;;;5089641;28;876;-34
2022/01/31 15:07:35;;;;;;;;;;;21.40;51.20;;;;;;5089640;28;1063;-34
2022/01/31 15:10:01;;;;;;;;;;;21.40;51.20;;;;;;5089519;28;972;-34
2022/01/31 15:12:28;;;;;;;;;;;21.40;51.20;;;;;;5088566;28;923;-34